Flight Track Log - Related Links

Times and Time Zones

All times are in EDT time to prevent confusion due to time zone crossing. See the SWA3943 flight status page for this flight to view local times or setup timezone preferences in your user account.


Time Position Orientation Groundspeed Altitude Reporting Facility
EDT Latitude Longitude Course Direction KTS MPH feet Rate Location/Type
Thu 08:23:06 PM 39.9972 -82.9558 269° West 167 192 2,400  Level Indianapolis Center
Thu 08:23:43 PM 39.9992 -82.9950 274° West 192 221 3,400 1,959 Climbing Indianapolis Center
Thu 08:24:44 PM 39.9592 -83.0236 209° Southwest 220 253 5,600 2,244 Climbing Indianapolis Center
Thu 08:25:46 PM 39.9500 -82.9256 97° East 278 320 8,000 3,073 Climbing Indianapolis Center
Thu 08:26:47 PM 39.9433 -82.8075 94° East 318 366 11,900 2,927 Climbing Indianapolis Center
Thu 08:27:49 PM 39.9486 -82.6922 87° East 322 371 14,000 2,439 Climbing Indianapolis Center
Thu 08:28:50 PM 39.9544 -82.5589 87° East 362 417 16,900 2,780 Climbing Indianapolis Center
Thu 08:29:52 PM 39.9608 -82.3983 87° East 377 434 19,700 2,585 Climbing Indianapolis Center
Thu 08:30:53 PM 39.9672 -82.2528 87° East 396 456 22,200 2,146 Climbing Indianapolis Center
Thu 08:31:55 PM 39.9731 -82.1064 87° East 401 461 24,100 1,756 Climbing Indianapolis Center
Thu 08:32:56 PM 39.9792 -81.9500 87° East 424 488 25,800 1,707 Climbing Indianapolis Center
Thu 08:33:58 PM 39.9850 -81.7900 87° East 435 501 27,600 1,561 Climbing Indianapolis Center
Thu 08:34:59 PM 39.9897 -81.6317 88° East 444 511 29,000 634 Climbing Indianapolis Center
Thu 08:36:01 PM 39.9703 -81.4636 99° East 461 531 28,900 -49 Descending Indianapolis Center
Thu 08:37:02 PM 39.9506 -81.2969 99° East 466 536 28,900 49 Level Indianapolis Center
Thu 08:38:04 PM 39.9306 -81.1297 99° East 466 536 29,000 58 Climbing Indianapolis Center
Thu 08:38:46 PM 39.9183 -81.0053 97° East 462 532 29,000  Level Cleveland Center
Thu 08:39:46 PM 39.8958 -80.8375 100° East 469 540 29,000  Level Cleveland Center
Thu 08:40:46 PM 39.8753 -80.6697 99° East 469 540 29,000  Level Cleveland Center
Thu 08:41:46 PM 39.8525 -80.4964 100° East 469 540 29,000  Level Cleveland Center
Thu 08:42:46 PM 39.8292 -80.3208 100° East 481 554 29,000  Level Cleveland Center
Thu 08:45:07 PM 39.7775 -79.9250 100° East 490 564 29,000  Level Washington Center
Thu 08:46:05 PM 39.7542 -79.7564 100° East 485 558 29,000  Level Washington Center
Thu 08:47:05 PM 39.7331 -79.5850 99° East 485 558 29,000  Level Washington Center
Thu 08:48:06 PM 39.7094 -79.4136 100° East 480 552 29,000 -744 Level Washington Center
Thu 08:49:06 PM 39.6856 -79.2453 100° East 480 552 27,500 -1,983 Descending Washington Center
Thu 08:50:07 PM 39.6611 -79.0797 101° East 475 547 25,000 -1,240 Descending Washington Center
Thu 08:51:07 PM 39.6203 -78.8997 106° East 463 533 25,000  Level Washington Center
Thu 08:52:05 PM 39.5850 -78.7419 106° East 463 533 25,000 -1,059 Level Washington Center
Thu 08:53:06 PM 39.5517 -78.5844 105° East 463 533 22,900 -2,380 Descending Washington Center
Thu 08:54:06 PM 39.5156 -78.4322 107° East 458 527 20,200 -2,529 Descending Washington Center
Thu 08:55:07 PM 39.4836 -78.2831 105° East 438 504 17,800 -2,571 Descending Washington Center
Thu 08:56:05 PM 39.4514 -78.1422 106° East 419 482 15,100 -1,361 Descending Washington Center
Thu 08:57:06 PM 39.4353 -78.0044 99° East 400 460 15,100 -50 Level Washington Center
Thu 08:58:06 PM 39.4361 -77.8567 90° East 395 455 15,000 -50 Descending Washington Center
Thu 08:59:07 PM 39.4364 -77.7306 90° East 395 455 15,000  Level Washington Center
Thu 09:00:07 PM 39.4408 -77.5881 88° East 390 449 15,000 -1,289 Level Washington Center
Thu 09:01:08 PM 39.4431 -77.4458 89° East 390 449 12,400 -1,983 Descending Washington Center
Thu 09:02:05 PM 39.4533 -77.3117 84° East 380 437 11,100 -1,135 Descending Washington Center
Thu 09:02:22 PM 39.4667 -77.2500 74° East 377 434 11,000 -545 Descending Potomac TRACON
Thu 09:03:22 PM 39.4833 -77.1333 79° East 345 397 10,400 -850 Descending Potomac TRACON
Thu 09:04:22 PM 39.4833 -77.0167 90° East 314 361 9,300 -1,100 Descending Potomac TRACON
Thu 09:05:22 PM 39.4667 -76.9167 102° East 312 359 8,200 -1,200 Descending Potomac TRACON
Thu 09:06:22 PM 39.4333 -76.8167 113° Southeast 297 342 6,900 -1,300 Descending Potomac TRACON
Thu 09:07:22 PM 39.4000 -76.7167 113° Southeast 289 333 5,600 -1,100 Descending Potomac TRACON
Thu 09:08:22 PM 39.3500 -76.6333 128° Southeast 277 319 4,700 -1,150 Descending Potomac TRACON
Thu 09:09:22 PM 39.3000 -76.5667 134° Southeast 277 319 3,300 -1,150 Descending Potomac TRACON
Thu 09:10:22 PM 39.2333 -76.5500 169° South 242 278 2,400 -650 Descending Potomac TRACON
Thu 09:11:22 PM 39.1667 -76.5333 169° South 226 260 2,000 -300 Descending Potomac TRACON
Thu 09:12:22 PM 39.1333 -76.5667 218° Southwest 173 199 1,800 -425 Descending Potomac TRACON
Thu 09:13:29 PM 39.1167 -76.6167 247° West 133 153 1,100 -614 Descending Potomac TRACON
Thu 09:14:29 PM 39.1500 -76.6500 322° Northwest 141 162 500 -600 Descending Potomac TRACON
Thu 09:16:00 PM 39.1667 -76.6667 241° Southwest  Level FlightAware Approximate
Thu 09:23:00 PM 39.1754 -76.6683 241° Southwest  Level Estimated
Thu 09:24:00 PM 39.1754 -76.6683 241° Southwest  Level Estimated

Login

Don't have an account? Register now (free) for customized features, flight alerts, and more!